Time;durP1;ratioP1;P1;durP2;ratioP2;P2;SDS_P1;SDS_P2;PMS_P1;PMS_P2;Temp;Humidity;BMP_temperature;BMP_pressure;BME280_temperature;BME280_humidity;BME280_pressure;Samples;Min_cycle;Max_cycle;Signal;HPM_P1;HPM_P2
2022/03/20 00:00:10;;;;;;;22.93;16.70;;;6.30;88.00;;;;;;5076743;28;20491;-57
2022/03/20 00:02:37;;;;;;;25.10;17.97;;;6.40;88.80;;;;;;5076627;28;20750;-56
2022/03/20 00:05:04;;;;;;;25.40;18.50;;;6.50;88.10;;;;;;5076253;28;20458;-56
2022/03/20 00:07:33;;;;;;;18.17;15.80;;;6.50;87.30;;;;;;5076296;28;20478;-56
2022/03/20 00:10:01;;;;;;;17.23;15.13;;;6.40;88.90;;;;;;5076182;28;20440;-57
2022/03/20 00:12:30;;;;;;;17.53;15.20;;;6.40;86.80;;;;;;5076164;28;20547;-57
2022/03/20 00:14:57;;;;;;;24.33;17.37;;;6.40;86.30;;;;;;5076569;28;20439;-56
2022/03/20 00:17:25;;;;;;;21.57;17.80;;;6.20;85.60;;;;;;5076139;28;21029;-56
2022/03/20 00:19:52;;;;;;;19.87;16.57;;;6.20;86.60;;;;;;5075780;28;20814;-56
2022/03/20 00:22:19;;;;;;;21.60;15.90;;;6.20;86.30;;;;;;5076331;28;20444;-56
2022/03/20 00:24:47;;;;;;;19.73;16.00;;;6.20;86.90;;;;;;5076432;28;20454;-56
2022/03/20 00:27:15;;;;;;;21.30;16.73;;;6.20;86.80;;;;;;5075833;28;20810;-56
2022/03/20 00:29:45;;;;;;;18.33;16.43;;;6.20;86.00;;;;;;5076310;28;20444;-56
2022/03/20 00:32:13;;;;;;;19.47;16.20;;;6.20;86.10;;;;;;5076250;28;20452;-56
2022/03/20 00:34:41;;;;;;;23.80;16.80;;;6.20;85.70;;;;;;5076061;28;20550;-57
2022/03/20 00:37:09;;;;;;;20.80;16.90;;;6.20;86.80;;;;;;5075650;28;20974;-56
2022/03/20 00:39:37;;;;;;;20.83;17.50;;;6.20;86.00;;;;;;5076038;28;20571;-56
2022/03/20 00:42:05;;;;;;;21.17;17.57;;;6.20;85.90;;;;;;5075401;28;20456;-56
2022/03/20 00:44:32;;;;;;;19.77;16.73;;;6.10;85.70;;;;;;5075854;28;20451;-56
2022/03/20 00:47:01;;;;;;;20.83;15.13;;;6.00;85.30;;;;;;5075586;28;20814;-56
2022/03/20 00:49:29;;;;;;;19.50;16.30;;;6.00;85.60;;;;;;5075829;28;20455;-56
2022/03/20 00:51:56;;;;;;;22.07;17.07;;;6.00;86.00;;;;;;5074574;28;20480;-56
2022/03/20 00:54:23;;;;;;;18.77;16.30;;;6.00;84.40;;;;;;5075734;28;20480;-56
2022/03/20 00:56:50;;;;;;;24.97;17.37;;;6.00;86.10;;;;;;5075445;28;20474;-56
2022/03/20 00:59:17;;;;;;;23.03;16.07;;;6.10;85.90;;;;;;5075185;28;20847;-56
2022/03/20 01:01:45;;;;;;;18.30;16.03;;;6.00;85.80;;;;;;5075268;28;20953;-56
2022/03/20 01:04:13;;;;;;;21.40;15.80;;;6.00;85.60;;;;;;5075682;28;20448;-56
2022/03/20 01:06:40;;;;;;;19.50;16.30;;;6.10;85.80;;;;;;5075431;28;20450;-57
2022/03/20 01:09:08;;;;;;;18.13;15.63;;;6.00;85.80;;;;;;5075449;28;20437;-56
2022/03/20 01:11:35;;;;;;;22.90;17.77;;;6.10;86.90;;;;;;5075272;28;20938;-56
2022/03/20 01:14:02;;;;;;;18.50;16.67;;;6.20;86.80;;;;;;5075504;28;20456;-56
2022/03/20 01:16:29;;;;;;;25.93;19.00;;;6.20;86.90;;;;;;5074933;28;20450;-56
2022/03/20 01:18:56;;;;;;;21.90;16.97;;;6.20;85.80;;;;;;5074991;28;20567;-56
2022/03/20 01:21:25;;;;;;;24.30;18.03;;;6.20;86.00;;;;;;5074793;28;20455;-57
2022/03/20 01:23:52;;;;;;;18.83;16.90;;;6.20;86.30;;;;;;5074857;28;20448;-56
2022/03/20 01:26:19;;;;;;;19.03;15.90;;;6.20;85.80;;;;;;5074940;28;20542;-56
2022/03/20 01:28:47;;;;;;;19.10;15.60;;;6.10;86.30;;;;;;5074713;28;20449;-56
2022/03/20 01:31:14;;;;;;;20.70;18.37;;;6.10;86.40;;;;;;5074845;28;20535;-56
2022/03/20 01:33:42;;;;;;;20.63;16.10;;;6.20;85.50;;;;;;5074788;28;20440;-56
2022/03/20 01:36:09;;;;;;;17.10;15.20;;;6.10;86.00;;;;;;5074873;28;20452;-56
2022/03/20 01:38:38;;;;;;;21.77;16.83;;;6.10;85.70;;;;;;5074371;28;20966;-57
2022/03/20 01:41:05;;;;;;;27.43;17.40;;;6.20;85.90;;;;;;5074921;28;20656;-57
2022/03/20 01:43:32;;;;;;;20.77;17.00;;;6.20;85.40;;;;;;5074793;28;20484;-57
2022/03/20 01:45:59;;;;;;;20.77;15.73;;;6.20;86.30;;;;;;5074389;28;20448;-57
2022/03/20 01:48:26;;;;;;;19.57;16.93;;;6.20;85.70;;;;;;5074716;28;20469;-56
2022/03/20 01:50:54;;;;;;;18.67;16.70;;;6.20;86.40;;;;;;5074309;28;20472;-57
2022/03/20 01:53:21;;;;;;;21.53;17.47;;;6.10;84.10;;;;;;5074624;28;20436;-56
2022/03/20 01:55:52;;;;;;;18.53;16.00;;;6.00;84.50;;;;;;5074572;28;20532;-56
2022/03/20 01:58:20;;;;;;;19.80;17.10;;;6.10;85.30;;;;;;5074550;28;20465;-56
2022/03/20 02:00:47;;;;;;;20.47;16.43;;;6.10;86.40;;;;;;5074370;28;20488;-56
2022/03/20 02:03:14;;;;;;;17.43;14.40;;;6.00;87.10;;;;;;5074240;28;20454;-56
2022/03/20 02:05:43;;;;;;;24.17;20.70;;;6.00;85.50;;;;;;5074143;28;20931;-56
2022/03/20 02:08:11;;;;;;;19.33;16.30;;;5.90;84.90;;;;;;5074285;28;20460;-57
2022/03/20 02:10:40;;;;;;;18.53;16.20;;;6.00;86.40;;;;;;5073929;28;20876;-57
2022/03/20 02:13:08;;;;;;;22.40;16.40;;;5.90;84.80;;;;;;5074282;28;20879;-56
2022/03/20 02:15:36;;;;;;;20.47;16.40;;;5.90;84.30;;;;;;5073825;28;20444;-57
2022/03/20 02:18:05;;;;;;;22.40;15.37;;;5.90;84.90;;;;;;5073699;28;20460;-56
2022/03/20 02:20:33;;;;;;;20.83;16.97;;;6.00;86.30;;;;;;5074066;28;20503;-56
2022/03/20 02:23:02;;;;;;;19.30;15.87;;;5.90;86.90;;;;;;5073767;28;20448;-56
2022/03/20 02:25:29;;;;;;;22.17;16.60;;;6.00;86.40;;;;;;5074043;28;20510;-56
2022/03/20 02:27:57;;;;;;;21.50;17.50;;;6.00;86.50;;;;;;5073828;28;20605;-57
2022/03/20 02:30:27;;;;;;;23.23;17.83;;;6.00;86.60;;;;;;5073994;28;20562;-57
2022/03/20 02:32:55;;;;;;;22.60;16.80;;;6.00;86.80;;;;;;5073600;28;20437;-56
2022/03/20 02:35:22;;;;;;;26.80;17.03;;;6.00;86.60;;;;;;5073772;28;20455;-57
2022/03/20 02:37:53;;;;;;;21.27;15.63;;;5.90;87.00;;;;;;5073796;28;20468;-56
2022/03/20 02:40:23;;;;;;;22.73;17.00;;;6.00;87.20;;;;;;5073709;28;20464;-57
2022/03/20 02:42:54;;;;;;;24.40;16.80;;;5.90;87.70;;;;;;5073674;28;20452;-57
2022/03/20 02:45:22;;;;;;;20.80;17.23;;;6.00;88.50;;;;;;5073387;28;20429;-56
2022/03/20 02:47:51;;;;;;;19.67;16.93;;;6.10;88.70;;;;;;5073712;28;20471;-56
2022/03/20 02:50:20;;;;;;;19.80;16.20;;;6.10;89.60;;;;;;5073449;28;20471;-56
2022/03/20 02:52:49;;;;;;;21.30;16.80;;;6.00;87.20;;;;;;5073274;28;20447;-56
2022/03/20 02:55:18;;;;;;;19.60;16.57;;;6.00;88.50;;;;;;5073644;28;20527;-56
2022/03/20 02:57:47;;;;;;;18.33;14.60;;;6.10;88.60;;;;;;5072981;28;20464;-56
2022/03/20 03:00:17;;;;;;;23.37;16.17;;;6.10;88.30;;;;;;5073114;28;21014;-56
2022/03/20 03:02:45;;;;;;;20.20;15.70;;;6.10;88.80;;;;;;5073191;28;20456;-56
2022/03/20 03:05:14;;;;;;;27.77;18.33;;;6.20;90.00;;;;;;5073492;28;20457;-56
2022/03/20 03:13:14;;;;;;;22.10;17.13;;;5.90;92.10;;;;;;5073335;28;20435;-57
2022/03/20 03:15:42;;;;;;;25.03;17.00;;;5.90;91.50;;;;;;5072833;28;20424;-56
2022/03/20 03:18:09;;;;;;;24.13;20.07;;;5.90;91.70;;;;;;5073380;28;20466;-57
2022/03/20 03:20:36;;;;;;;27.33;18.00;;;6.00;91.90;;;;;;5072790;28;20487;-56
2022/03/20 03:23:04;;;;;;;20.43;16.40;;;6.00;91.70;;;;;;5072980;28;20451;-56
2022/03/20 03:25:33;;;;;;;23.80;19.00;;;5.90;91.20;;;;;;5073083;28;20452;-56
2022/03/20 03:28:00;;;;;;;22.07;19.63;;;5.80;91.40;;;;;;5073026;28;20473;-56
2022/03/20 03:30:29;;;;;;;22.07;18.97;;;5.70;91.60;;;;;;5072901;28;20923;-56
2022/03/20 03:32:57;;;;;;;22.80;17.73;;;5.80;91.40;;;;;;5072994;28;20947;-56
2022/03/20 03:35:42;;;;;;;20.10;17.57;;;5.90;92.10;;;;;;5072889;28;20448;-56
2022/03/20 03:38:11;;;;;;;20.97;18.70;;;6.00;92.00;;;;;;5072841;28;20525;-56
2022/03/20 03:40:38;;;;;;;18.60;16.70;;;6.00;91.90;;;;;;5072663;28;20480;-56
2022/03/20 03:43:06;;;;;;;25.73;19.57;;;6.00;92.20;;;;;;5072886;28;21003;-56
2022/03/20 03:45:35;;;;;;;22.10;18.30;;;6.00;92.40;;;;;;5072850;28;20444;-56
2022/03/20 03:48:04;;;;;;;20.63;18.30;;;6.10;93.00;;;;;;5072941;28;20471;-56
2022/03/20 03:50:31;;;;;;;24.93;17.57;;;6.10;92.70;;;;;;5072639;28;20436;-56
2022/03/20 03:52:58;;;;;;;28.97;18.83;;;6.20;93.00;;;;;;5072865;28;20966;-56
2022/03/20 03:55:25;;;;;;;24.30;18.37;;;6.00;92.40;;;;;;5072958;28;20448;-56
2022/03/20 03:57:53;;;;;;;26.37;17.93;;;6.00;91.40;;;;;;5072846;28;20559;-57
2022/03/20 04:00:21;;;;;;;25.43;17.40;;;6.00;92.00;;;;;;5072680;28;20486;-57
2022/03/20 04:02:50;;;;;;;24.90;19.00;;;6.10;92.90;;;;;;5072552;28;20448;-56
2022/03/20 04:05:18;;;;;;;29.40;20.80;;;6.30;98.40;;;;;;5072823;28;20452;-57
2022/03/20 04:07:47;;;;;;;22.07;19.03;;;6.20;95.60;;;;;;5072934;28;20475;-56
2022/03/20 04:10:16;;;;;;;27.87;19.73;;;6.30;93.90;;;;;;5072908;28;20448;-57
2022/03/20 04:12:44;;;;;;;24.87;18.50;;;6.30;93.70;;;;;;5072764;28;20460;-56
2022/03/20 04:15:12;;;;;;;27.50;19.00;;;6.20;93.00;;;;;;5072733;28;20432;-56
2022/03/20 04:17:40;;;;;;;23.83;19.63;;;6.20;92.30;;;;;;5072815;28;20498;-56
2022/03/20 04:20:10;;;;;;;22.83;17.83;;;6.20;91.00;;;;;;5072231;28;20488;-56
2022/03/20 04:22:39;;;;;;;26.20;19.07;;;6.20;90.50;;;;;;5072238;28;20448;-56
2022/03/20 04:25:07;;;;;;;29.23;19.27;;;6.20;90.50;;;;;;5072773;28;20452;-56
2022/03/20 04:27:35;;;;;;;23.50;18.53;;;6.20;90.70;;;;;;5073352;28;20829;-56
2022/03/20 04:30:02;;;;;;;23.77;18.43;;;6.20;90.40;;;;;;5076225;28;20444;-56
2022/03/20 04:32:30;;;;;;;20.50;17.17;;;6.10;90.50;;;;;;5075956;28;20539;-56
2022/03/20 04:34:57;;;;;;;29.80;19.47;;;6.20;90.00;;;;;;5076076;28;20463;-56
2022/03/20 04:37:26;;;;;;;23.20;18.87;;;6.20;87.80;;;;;;5075916;28;20465;-56
2022/03/20 04:39:53;;;;;;;26.67;18.67;;;6.20;86.80;;;;;;5075756;28;20480;-56
2022/03/20 04:42:21;;;;;;;27.57;19.13;;;6.30;86.50;;;;;;5076036;28;20452;-56
2022/03/20 04:44:48;;;;;;;22.27;19.33;;;6.30;86.90;;;;;;5075671;28;20425;-56
2022/03/20 04:58:31;;;;;;;22.50;16.47;;;6.40;86.40;;;;;;4993987;28;20440;-56
2022/03/20 05:01:00;;;;;;;23.97;19.03;;;6.50;86.20;;;;;;4994057;28;20482;-56
2022/03/20 05:03:28;;;;;;;25.60;19.17;;;6.50;86.20;;;;;;5032042;28;20459;-57
2022/03/20 05:05:56;;;;;;;24.90;19.33;;;6.50;86.10;;;;;;5075221;28;20452;-56
2022/03/20 05:08:24;;;;;;;27.13;19.00;;;6.40;85.80;;;;;;5075425;28;20472;-57
2022/03/20 05:13:36;;;;;;;26.73;18.60;;;6.40;85.80;;;;;;5075630;28;20966;-57
2022/03/20 05:16:04;;;;;;;25.13;18.83;;;6.40;85.80;;;;;;5074980;28;20875;-56
2022/03/20 05:18:32;;;;;;;27.17;19.90;;;6.40;85.80;;;;;;5075210;28;20468;-56
2022/03/20 05:20:59;;;;;;;23.03;18.63;;;6.40;86.10;;;;;;5074833;28;20483;-56
2022/03/20 05:23:28;;;;;;;26.97;19.53;;;6.40;86.00;;;;;;5074881;28;21016;-56
2022/03/20 05:25:55;;;;;;;24.67;20.20;;;6.30;86.30;;;;;;5074827;28;20448;-56
2022/03/20 05:28:22;;;;;;;22.27;17.33;;;6.40;87.00;;;;;;5075176;28;20474;-56
2022/03/20 05:30:50;;;;;;;25.57;20.83;;;6.40;86.40;;;;;;5075011;28;20444;-56
2022/03/20 05:33:17;;;;;;;21.93;17.93;;;6.40;85.80;;;;;;5074988;28;20973;-56
2022/03/20 05:35:45;;;;;;;25.73;18.80;;;6.50;85.80;;;;;;5075110;28;20444;-56
2022/03/20 05:38:12;;;;;;;25.13;18.57;;;6.50;85.90;;;;;;5074400;28;20830;-57
2022/03/20 05:40:44;;;;;;;26.50;19.37;;;6.40;85.50;;;;;;5074451;28;20985;-56
2022/03/20 05:43:11;;;;;;;23.37;19.10;;;6.40;86.10;;;;;;5074855;28;20482;-57
2022/03/20 05:45:39;;;;;;;26.63;20.30;;;6.40;85.40;;;;;;5074556;28;20478;-56
2022/03/20 05:48:08;;;;;;;23.27;18.87;;;6.50;85.80;;;;;;5074607;28;20500;-57
2022/03/20 05:50:35;;;;;;;22.93;19.27;;;6.50;86.10;;;;;;5074405;28;20850;-57
2022/03/20 05:53:02;;;;;;;29.43;20.90;;;6.60;86.20;;;;;;5074786;28;20425;-56
2022/03/20 05:58:16;;;;;;;24.17;20.00;;;6.50;85.80;;;;;;5074311;28;20443;-57
2022/03/20 06:00:43;;;;;;;25.87;21.53;;;6.60;86.30;;;;;;5074522;28;20589;-57
2022/03/20 06:03:11;;;;;;;23.40;19.07;;;6.70;86.30;;;;;;5074169;28;20458;-56
2022/03/20 06:05:38;;;;;;;29.60;20.87;;;6.80;85.80;;;;;;5074367;28;20448;-56
2022/03/20 06:08:07;;;;;;;23.37;19.60;;;6.90;95.40;;;;;;5074256;28;20526;-57
2022/03/20 06:10:34;;;;;;;27.97;20.23;;;6.90;93.40;;;;;;5074369;28;20445;-57
2022/03/20 06:13:03;;;;;;;25.50;21.20;;;6.90;93.80;;;;;;5074225;28;20460;-57
2022/03/20 06:15:32;;;;;;;25.50;20.80;;;6.90;93.50;;;;;;5073816;28;20452;-57
2022/03/20 06:17:59;;;;;;;25.07;20.17;;;7.00;93.10;;;;;;5073886;28;20474;-57
2022/03/20 06:20:26;;;;;;;26.33;20.93;;;7.00;86.10;;;;;;5074090;28;20480;-57
2022/03/20 06:22:53;;;;;;;25.87;20.43;;;7.00;85.80;;;;;;5073968;28;20459;-57
2022/03/20 06:25:21;;;;;;;23.37;19.20;;;7.00;86.20;;;;;;5073598;28;20810;-56
2022/03/20 06:27:50;;;;;;;27.97;21.87;;;7.00;86.70;;;;;;5073973;28;20847;-57
2022/03/20 06:30:18;;;;;;;27.60;21.60;;;7.00;86.70;;;;;;5073577;28;20959;-57
2022/03/20 06:32:48;;;;;;;23.43;20.07;;;7.10;86.40;;;;;;5073836;28;20539;-57
2022/03/20 06:35:17;;;;;;;32.60;21.87;;;7.20;86.20;;;;;;5073989;28;20451;-57
2022/03/20 06:37:46;;;;;;;26.37;19.80;;;7.30;86.50;;;;;;5073765;28;20472;-57
2022/03/20 06:40:15;;;;;;;26.80;20.10;;;7.30;86.50;;;;;;5073685;28;20470;-56
2022/03/20 06:42:42;;;;;;;26.80;21.60;;;7.40;86.40;;;;;;5073849;28;20460;-57
2022/03/20 06:45:11;;;;;;;26.40;20.03;;;7.30;86.40;;;;;;5073772;28;20443;-56
2022/03/20 06:47:40;;;;;;;22.33;19.93;;;7.30;86.30;;;;;;5073612;28;20472;-57
2022/03/20 06:50:10;;;;;;;27.87;20.73;;;7.30;86.40;;;;;;5072854;28;20938;-57
2022/03/20 06:52:39;;;;;;;27.70;22.37;;;7.40;88.40;;;;;;5073200;28;20559;-57
2022/03/20 06:55:08;;;;;;;26.57;21.13;;;7.40;87.30;;;;;;5073566;28;20496;-57
2022/03/20 06:57:36;;;;;;;25.20;20.43;;;7.30;87.40;;;;;;5073170;28;20966;-56
2022/03/20 07:00:06;;;;;;;30.33;22.93;;;7.40;87.50;;;;;;5073625;28;20452;-56
2022/03/20 07:02:33;;;;;;;32.97;22.67;;;7.30;87.60;;;;;;5073418;28;20516;-56
2022/03/20 07:05:00;;;;;;;30.47;21.60;;;7.30;87.50;;;;;;5073085;28;20444;-57
2022/03/20 07:07:29;;;;;;;28.87;21.90;;;7.40;87.50;;;;;;5073166;28;20475;-57
2022/03/20 07:09:56;;;;;;;24.93;20.53;;;7.60;87.90;;;;;;5073205;28;20539;-57
2022/03/20 07:12:24;;;;;;;36.60;22.50;;;7.60;87.50;;;;;;5073266;28;20469;-57
2022/03/20 07:14:51;;;;;;;27.70;21.30;;;7.70;87.70;;;;;;5073358;28;20425;-57
2022/03/20 07:17:19;;;;;;;25.57;20.30;;;7.80;89.00;;;;;;5073075;28;20875;-57
2022/03/20 07:19:46;;;;;;;31.67;22.23;;;7.80;87.30;;;;;;5072954;28;20448;-57
2022/03/20 07:22:16;;;;;;;32.50;24.10;;;8.00;90.20;;;;;;5073099;28;20480;-57
2022/03/20 07:24:45;;;;;;;28.50;22.80;;;7.90;86.70;;;;;;5073394;28;20452;-57
2022/03/20 07:29:58;;;;;;;26.00;21.00;;;7.90;87.40;;;;;;5072994;28;20539;-57
2022/03/20 07:32:25;;;;;;;27.43;24.20;;;8.00;89.40;;;;;;5073104;28;20440;-57
2022/03/20 07:34:53;;;;;;;27.80;23.07;;;8.10;87.60;;;;;;5073302;28;20539;-57
2022/03/20 07:37:20;;;;;;;28.93;22.67;;;8.20;89.20;;;;;;5072692;28;20472;-57
2022/03/20 07:39:51;;;;;;;32.70;23.13;;;8.40;88.80;;;;;;5073100;28;20453;-57
2022/03/20 07:42:20;;;;;;;27.33;21.33;;;8.40;89.90;;;;;;5072822;28;20963;-57
2022/03/20 07:44:47;;;;;;;28.20;23.43;;;8.40;87.00;;;;;;5077888;28;20436;-57
2022/03/20 07:47:18;;;;;;;29.93;23.10;;;8.30;86.70;;;;;;5093195;28;20467;-57
2022/03/20 07:49:46;;;;;;;28.90;22.90;;;8.50;88.30;;;;;;5093203;28;20806;-57
2022/03/20 07:52:13;;;;;;;27.80;22.07;;;8.40;87.90;;;;;;5092695;28;20506;-57
2022/03/20 07:54:41;;;;;;;34.10;25.97;;;8.40;88.10;;;;;;5093016;28;20439;-57
2022/03/20 07:57:09;;;;;;;30.57;21.70;;;8.50;90.10;;;;;;5092760;28;21034;-57
2022/03/20 07:59:37;;;;;;;32.93;23.47;;;8.60;88.40;;;;;;5092934;28;20446;-57
2022/03/20 08:02:05;;;;;;;24.73;20.77;;;8.70;87.90;;;;;;5094682;28;20494;-56
2022/03/20 08:04:32;;;;;;;28.33;22.13;;;8.70;88.40;;;;;;5096608;28;20530;-56
2022/03/20 08:07:00;;;;;;;25.97;21.60;;;8.70;85.20;;;;;;5096888;28;20841;-57
2022/03/20 08:09:28;;;;;;;29.17;24.50;;;8.70;85.60;;;;;;5096552;28;20953;-58
2022/03/20 08:11:55;;;;;;;30.93;24.67;;;8.80;85.50;;;;;;5096825;28;20439;-57
2022/03/20 08:14:25;;;;;;;27.50;23.13;;;9.00;85.40;;;;;;5097070;28;20454;-57
2022/03/20 08:16:52;;;;;;;29.10;23.90;;;9.10;85.10;;;;;;5096473;28;20514;-57
2022/03/20 08:19:23;;;;;;;29.27;23.63;;;9.30;84.70;;;;;;5096366;28;20952;-57
2022/03/20 08:21:50;;;;;;;26.07;22.37;;;9.40;84.40;;;;;;5096584;28;20914;-57
2022/03/20 08:24:18;;;;;;;28.20;22.97;;;9.40;84.30;;;;;;5096429;28;20837;-57
2022/03/20 08:26:45;;;;;;;30.07;23.87;;;9.40;84.50;;;;;;5096489;28;20474;-57
2022/03/20 08:29:13;;;;;;;29.70;23.03;;;9.50;84.30;;;;;;5095917;28;20938;-57
2022/03/20 08:31:44;;;;;;;29.20;23.60;;;9.70;83.60;;;;;;5096577;28;20444;-57
2022/03/20 08:34:13;;;;;;;29.43;22.60;;;9.70;83.40;;;;;;5096482;28;20457;-58
2022/03/20 08:36:40;;;;;;;28.90;23.00;;;9.70;83.30;;;;;;5095822;28;20816;-57
2022/03/20 08:39:08;;;;;;;27.00;22.77;;;10.00;82.30;;;;;;5096230;28;20432;-57
2022/03/20 08:41:35;;;;;;;28.37;22.53;;;10.10;83.40;;;;;;5095655;28;20489;-58
2022/03/20 08:44:03;;;;;;;38.40;23.90;;;10.20;84.30;;;;;;5096194;28;20913;-56
2022/03/20 08:46:30;;;;;;;32.47;23.53;;;10.20;84.10;;;;;;5096156;28;20447;-56
2022/03/20 08:49:03;;;;;;;26.70;22.50;;;10.30;83.60;;;;;;5095636;28;20808;-56
2022/03/20 08:51:31;;;;;;;33.43;24.23;;;10.30;84.60;;;;;;5094531;28;20996;-56
2022/03/20 08:53:59;;;;;;;30.70;24.30;;;10.40;82.20;;;;;;5095913;28;20455;-56
2022/03/20 08:56:26;;;;;;;28.03;22.90;;;10.50;82.20;;;;;;5095925;28;20454;-56
2022/03/20 08:58:53;;;;;;;27.33;22.87;;;10.50;81.10;;;;;;5095855;28;20541;-56
2022/03/20 09:01:25;;;;;;;27.47;22.80;;;10.60;82.10;;;;;;5095795;28;20744;-57
2022/03/20 09:03:52;;;;;;;30.20;24.87;;;10.80;83.40;;;;;;5095780;28;20439;-57
2022/03/20 09:06:24;;;;;;;26.00;22.30;;;10.90;81.60;;;;;;5095773;28;20530;-56
2022/03/20 09:08:53;;;;;;;23.80;20.60;;;11.00;79.70;;;;;;5095777;28;20777;-57
2022/03/20 09:11:21;;;;;;;26.47;20.77;;;11.20;80.10;;;;;;5095645;28;20500;-57
2022/03/20 09:13:49;;;;;;;29.50;22.37;;;11.40;79.50;;;;;;5094923;28;20451;-57
2022/03/20 09:19:04;;;;;;;28.13;20.50;;;11.50;76.50;;;;;;5095362;28;20415;-56
2022/03/20 09:21:35;;;;;;;31.90;21.40;;;11.50;77.10;;;;;;5095247;28;20610;-56
2022/03/20 09:24:04;;;;;;;25.50;20.43;;;11.70;76.10;;;;;;5095486;28;20438;-56
2022/03/20 09:26:31;;;;;;;24.50;21.57;;;12.00;77.20;;;;;;5095311;28;20439;-56
2022/03/20 09:28:59;;;;;;;25.17;22.30;;;12.00;74.80;;;;;;5094774;28;20539;-56
2022/03/20 09:31:27;;;;;;;28.47;21.00;;;12.20;73.90;;;;;;5095185;28;20447;-56
2022/03/20 09:33:54;;;;;;;26.10;20.07;;;12.40;73.70;;;;;;5095030;28;20444;-57
2022/03/20 09:36:21;;;;;;;24.30;20.10;;;13.00;72.70;;;;;;5095071;28;20451;-57
2022/03/20 09:38:51;;;;;;;26.43;20.13;;;13.70;69.80;;;;;;5094798;28;20852;-57
2022/03/20 09:41:18;;;;;;;24.23;19.63;;;14.80;69.90;;;;;;5095130;28;20808;-57
2022/03/20 09:43:46;;;;;;;22.97;19.90;;;15.70;67.70;;;;;;5094696;28;20819;-57
2022/03/20 09:46:15;;;;;;;25.13;18.93;;;;;;;;;;5094696;28;20443;-57
2022/03/20 09:48:43;;;;;;;23.87;20.47;;;17.30;61.40;;;;;;5094544;28;20464;-58
2022/03/20 09:51:10;;;;;;;27.20;20.63;;;17.80;59.60;;;;;;5094533;28;20471;-58
2022/03/20 09:53:37;;;;;;;24.10;19.83;;;17.90;59.80;;;;;;5094471;28;20897;-57
2022/03/20 09:56:11;;;;;;;24.23;19.90;;;18.60;58.40;;;;;;5094655;28;20484;-58
2022/03/20 09:58:38;;;;;;;24.80;18.80;;;18.00;57.50;;;;;;5094860;28;20542;-58
2022/03/20 10:01:05;;;;;;;19.53;17.20;;;19.10;57.80;;;;;;5094710;28;20447;-58
2022/03/20 10:03:32;;;;;;;22.07;18.60;;;18.10;57.10;;;;;;5094222;28;20916;-57
2022/03/20 10:06:05;;;;;;;20.57;18.03;;;18.00;57.20;;;;;;5094374;28;20447;-57
2022/03/20 10:08:33;;;;;;;30.33;19.40;;;17.60;57.60;;;;;;5094204;28;20493;-57
2022/03/20 10:11:15;;;;;;;24.70;17.47;;;17.80;58.30;;;;;;5094474;28;20530;-57
2022/03/20 10:14:09;;;;;;;21.87;17.03;;;16.50;59.20;;;;;;5094538;28;20455;-58
2022/03/20 10:16:36;;;;;;;23.63;18.00;;;16.60;60.10;;;;;;5094386;28;20553;-57
2022/03/20 10:19:25;;;;;;;23.77;18.97;;;16.60;60.50;;;;;;5094478;28;20443;-57
2022/03/20 10:21:54;;;;;;;22.50;17.47;;;16.40;61.20;;;;;;5093923;28;20563;-58
2022/03/20 10:24:23;;;;;;;25.80;17.20;;;16.50;61.30;;;;;;5094111;28;20451;-57
2022/03/20 10:27:03;;;;;;;19.37;16.63;;;16.90;62.30;;;;;;5094035;28;20563;-58
2022/03/20 10:29:33;;;;;;;20.07;17.30;;;17.10;60.80;;;;;;5094197;28;20436;-57
2022/03/20 10:32:02;;;;;;;20.90;16.33;;;16.40;63.70;;;;;;5094166;28;20430;-57
2022/03/20 10:34:29;;;;;;;18.23;16.20;;;15.70;63.50;;;;;;5093816;28;21021;-57
2022/03/20 10:36:57;;;;;;;22.37;17.63;;;15.20;63.80;;;;;;5093903;28;20546;-56
2022/03/20 10:39:28;;;;;;;27.13;17.90;;;15.40;65.20;;;;;;5093546;28;20909;-57
2022/03/20 10:41:57;;;;;;;21.40;17.20;;;15.20;65.10;;;;;;5093952;28;20464;-57
2022/03/20 10:44:26;;;;;;;25.63;17.53;;;15.10;65.80;;;;;;5094139;28;20491;-56
2022/03/20 10:46:58;;;;;;;19.80;16.17;;;14.80;66.40;;;;;;5093394;28;20554;-56
2022/03/20 10:49:25;;;;;;;24.27;17.60;;;14.80;67.10;;;;;;5093369;28;20451;-56
2022/03/20 10:52:03;;;;;;;24.93;17.00;;;14.90;70.00;;;;;;5093175;28;21004;-57
2022/03/20 10:54:42;;;;;;;22.40;16.67;;;15.10;71.90;;;;;;5093832;28;20509;-57
2022/03/20 10:57:12;;;;;;;22.03;17.33;;;15.30;69.30;;;;;;5093582;28;20493;-57
2022/03/20 10:59:40;;;;;;;21.97;18.07;;;15.30;67.40;;;;;;5093612;28;20440;-57
2022/03/20 11:02:22;;;;;;;22.00;16.93;;;15.30;66.20;;;;;;5093406;28;20478;-56
2022/03/20 11:04:50;;;;;;;20.73;17.63;;;15.30;66.50;;;;;;5093874;28;20432;-57
2022/03/20 11:07:18;;;;;;;27.50;15.73;;;15.50;66.20;;;;;;5093578;28;20471;-56
2022/03/20 11:09:46;;;;;;;20.10;16.00;;;15.80;67.40;;;;;;5093262;28;20447;-57
2022/03/20 11:12:18;;;;;;;18.73;16.30;;;16.10;68.60;;;;;;5093532;28;20541;-58
2022/03/20 11:14:47;;;;;;;21.97;16.50;;;16.30;67.00;;;;;;5093743;28;20548;-57
2022/03/20 11:17:18;;;;;;;20.97;16.20;;;17.00;67.00;;;;;;5093387;28;20476;-57
2022/03/20 11:19:51;;;;;;;23.60;16.40;;;16.60;65.40;;;;;;5093362;28;20454;-57
2022/03/20 11:22:20;;;;;;;26.37;16.70;;;16.40;68.70;;;;;;5093184;28;20966;-57
2022/03/20 11:24:48;;;;;;;25.30;16.50;;;16.40;67.50;;;;;;5093163;28;20448;-57
2022/03/20 11:27:24;;;;;;;21.40;16.17;;;16.20;66.30;;;;;;5092944;28;20468;-56
2022/03/20 11:29:56;;;;;;;22.17;15.83;;;16.30;66.00;;;;;;5093363;28;20432;-57
2022/03/20 11:32:24;;;;;;;21.97;15.90;;;16.70;70.10;;;;;;5093672;28;20459;-57
2022/03/20 11:34:52;;;;;;;18.50;14.20;;;17.20;66.80;;;;;;5093470;28;20532;-56
2022/03/20 11:37:19;;;;;;;17.20;13.93;;;17.40;64.00;;;;;;5095460;28;20489;-57
2022/03/20 11:40:09;;;;;;;19.17;14.43;;;17.30;63.00;;;;;;5096977;28;20453;-57
2022/03/20 11:42:38;;;;;;;21.83;14.73;;;;;;;;;;5096897;28;20985;-57
2022/03/20 11:45:18;;;;;;;22.60;16.70;;;18.80;66.30;;;;;;5097423;28;20844;-57
2022/03/20 11:47:47;;;;;;;20.27;16.93;;;19.10;62.80;;;;;;5097429;28;20830;-57
2022/03/20 11:50:20;;;;;;;17.80;15.43;;;19.20;61.90;;;;;;5096887;28;20541;-58
2022/03/20 11:52:53;;;;;;;22.17;15.97;;;19.80;63.20;;;;;;5096723;28;20475;-57
2022/03/20 11:55:35;;;;;;;18.37;15.50;;;20.00;60.10;;;;;;5097280;28;20455;-57
2022/03/20 11:58:06;;;;;;;18.97;16.50;;;20.80;61.40;;;;;;5097155;28;20467;-58
2022/03/20 12:00:35;;;;;;;21.47;18.57;;;20.90;59.40;;;;;;5096929;28;20424;-58
2022/03/20 12:03:39;;;;;;;18.57;16.37;;;20.90;58.50;;;;;;5096863;28;20483;-58
2022/03/20 12:06:49;;;;;;;19.07;15.40;;;20.90;58.70;;;;;;5096714;28;20948;-58
2022/03/20 12:10:01;;;;;;;15.17;12.70;;;21.00;57.80;;;;;;5067534;28;20546;-58
2022/03/20 12:12:40;;;;;;;17.33;13.47;;;20.00;57.90;;;;;;5068549;28;20447;-58
2022/03/20 12:15:12;;;;;;;15.53;14.03;;;20.10;57.30;;;;;;5096797;28;20439;-58
2022/03/20 12:17:58;;;;;;;13.33;11.90;;;20.40;56.60;;;;;;5096319;28;20961;-58
2022/03/20 12:21:05;;;;;;;16.20;12.63;;;21.40;57.40;;;;;;5095716;28;20542;-58
2022/03/20 12:23:44;;;;;;;21.43;13.47;;;21.60;56.90;;;;;;5096185;28;20497;-58
2022/03/20 12:26:34;;;;;;;14.83;13.23;;;21.50;56.00;;;;;;5096531;28;20435;-58
2022/03/20 12:29:34;;;;;;;18.13;14.07;;;20.70;55.50;;;;;;5096642;28;20436;-58
2022/03/20 12:32:06;;;;;;;20.90;13.80;;;20.10;56.10;;;;;;5096171;28;21035;-58
2022/03/20 12:34:34;;;;;;;19.03;14.37;;;20.50;55.10;;;;;;5096570;28;20428;-58
2022/03/20 12:37:37;;;;;;;29.67;14.87;;;19.90;55.90;;;;;;5095921;28;20554;-57
2022/03/20 12:40:13;;;;;;;20.53;14.10;;;18.80;55.80;;;;;;5096242;28;20530;-57
2022/03/20 12:42:42;;;;;;;15.77;13.40;;;18.90;56.10;;;;;;5095973;28;20491;-58
2022/03/20 12:45:16;;;;;;;17.90;12.90;;;18.60;56.40;;;;;;5096177;28;20479;-58
2022/03/20 12:47:56;;;;;;;19.23;13.70;;;18.60;57.10;;;;;;5095177;28;20466;-58
2022/03/20 12:50:25;;;;;;;19.70;13.07;;;19.00;56.30;;;;;;5095455;28;20428;-58
2022/03/20 12:52:56;;;;;;;15.67;14.00;;;19.60;56.00;;;;;;5095572;28;20475;-59
2022/03/20 12:55:28;;;;;;;17.73;12.23;;;19.50;55.50;;;;;;5095717;28;20432;-58
2022/03/20 12:57:55;;;;;;;18.37;13.47;;;18.90;54.80;;;;;;5095572;28;20463;-58
2022/03/20 13:00:24;;;;;;;16.90;13.73;;;19.00;56.20;;;;;;5095799;28;20471;-58
2022/03/20 13:03:06;;;;;;;19.20;13.00;;;18.30;55.30;;;;;;5095516;28;20487;-58
2022/03/20 13:05:35;;;;;;;14.43;12.20;;;18.10;55.50;;;;;;5095462;28;20789;-57
2022/03/20 13:08:03;;;;;;;19.90;13.03;;;17.50;55.90;;;;;;5095611;28;20471;-57
2022/03/20 13:10:36;;;;;;;20.73;12.90;;;17.70;56.10;;;;;;5095479;28;20443;-58
2022/03/20 13:13:04;;;;;;;15.90;12.80;;;18.00;55.40;;;;;;5095449;28;20459;-57